CEB310 RPLL-RCTP
Flight info
| Callsign | CEB310 |
|---|---|
| Flight time | N/A |
| Altitude | 39000 |
| Route | ALPA2R ALPAS M646 POTIB Q14 TNN TNN1A |
| Aircraft | A33/H-VGDW/C |
Departure
| Time | 2026-05-06 01:42 |
|---|---|
| Airport | Ninoy Aquino International Airport (RPLL) |
Arrival
| Time | N/A |
|---|---|
| Airport | Taiwan Taoyuan International Airport (RCTP) |
| Time | Latitude | Longitude | Altitude | Speed | Heading |
|---|---|---|---|---|---|
| 2026-05-06 01:19 | 14.51701 | 121.01465 | 90 ft | 0 kts | 46° |
| 2026-05-06 01:27 | 14.51697 | 121.01460 | 90 ft | 2 kts | 47° |
| 2026-05-06 01:28 | 14.51687 | 121.01450 | 90 ft | 2 kts | 47° |
| 2026-05-06 01:28 | 14.51677 | 121.01438 | 90 ft | 2 kts | 46° |
| 2026-05-06 01:28 | 14.51666 | 121.01427 | 90 ft | 2 kts | 46° |
| 2026-05-06 01:28 | 14.51656 | 121.01415 | 90 ft | 2 kts | 58° |
| 2026-05-06 01:29 | 14.51651 | 121.01402 | 90 ft | 2 kts | 90° |
| 2026-05-06 01:29 | 14.51653 | 121.01387 | 90 ft | 2 kts | 115° |
| 2026-05-06 01:29 | 14.51659 | 121.01378 | 90 ft | 0 kts | 134° |
| 2026-05-06 01:31 | 14.51662 | 121.01374 | 90 ft | 0 kts | 135° |
| 2026-05-06 01:32 | 14.51652 | 121.01384 | 90 ft | 4 kts | 135° |
| 2026-05-06 01:33 | 14.51621 | 121.01415 | 90 ft | 8 kts | 135° |
| 2026-05-06 01:33 | 14.51575 | 121.01463 | 90 ft | 10 kts | 134° |
| 2026-05-06 01:33 | 14.51519 | 121.01522 | 90 ft | 12 kts | 134° |
| 2026-05-06 01:33 | 14.51454 | 121.01592 | 90 ft | 14 kts | 134° |
| 2026-05-06 01:34 | 14.51381 | 121.01668 | 90 ft | 15 kts | 134° |
| 2026-05-06 01:34 | 14.51303 | 121.01749 | 90 ft | 16 kts | 135° |
| 2026-05-06 01:34 | 14.51247 | 121.01807 | 90 ft | 17 kts | 135° |
| 2026-05-06 01:34 | 14.51189 | 121.01867 | 90 ft | 17 kts | 135° |
| 2026-05-06 01:35 | 14.51159 | 121.01897 | 90 ft | 18 kts | 135° |
| 2026-05-06 01:35 | 14.51027 | 121.01959 | 90 ft | 9 kts | 239° |
| 2026-05-06 01:35 | 14.50989 | 121.01894 | 90 ft | 11 kts | 239° |
| 2026-05-06 01:35 | 14.50944 | 121.01816 | 90 ft | 13 kts | 240° |
| 2026-05-06 01:36 | 14.50894 | 121.01726 | 90 ft | 15 kts | 240° |
| 2026-05-06 01:36 | 14.50838 | 121.01627 | 90 ft | 16 kts | 240° |
| 2026-05-06 01:36 | 14.50778 | 121.01519 | 90 ft | 17 kts | 239° |
| 2026-05-06 01:36 | 14.50714 | 121.01407 | 90 ft | 18 kts | 240° |
| 2026-05-06 01:37 | 14.50648 | 121.01287 | 90 ft | 19 kts | 240° |
| 2026-05-06 01:37 | 14.50580 | 121.01165 | 90 ft | 20 kts | 241° |
| 2026-05-06 01:37 | 14.50511 | 121.01036 | 90 ft | 20 kts | 240° |
| 2026-05-06 01:37 | 14.50439 | 121.00906 | 90 ft | 21 kts | 240° |
| 2026-05-06 01:38 | 14.50365 | 121.00774 | 90 ft | 21 kts | 240° |
| 2026-05-06 01:38 | 14.50289 | 121.00640 | 90 ft | 21 kts | 240° |
| 2026-05-06 01:38 | 14.50213 | 121.00502 | 90 ft | 22 kts | 240° |
| 2026-05-06 01:38 | 14.50138 | 121.00365 | 90 ft | 22 kts | 240° |
| 2026-05-06 01:39 | 14.50062 | 121.00230 | 90 ft | 22 kts | 239° |
| 2026-05-06 01:39 | 14.49983 | 121.00088 | 90 ft | 20 kts | 240° |
| 2026-05-06 01:39 | 14.49925 | 120.99987 | 90 ft | 9 kts | 230° |
| 2026-05-06 01:39 | 14.49873 | 120.99972 | 90 ft | 8 kts | 162° |
| 2026-05-06 01:40 | 14.49816 | 121.00003 | 90 ft | 10 kts | 139° |
| 2026-05-06 01:40 | 14.49803 | 121.00045 | 90 ft | 6 kts | 68° |
| 2026-05-06 01:40 | 14.49814 | 121.00065 | 90 ft | 0 kts | 60° |
| 2026-05-06 01:41 | 14.49814 | 121.00066 | 90 ft | 1 kts | 60° |
| 2026-05-06 01:41 | 14.49898 | 121.00220 | 90 ft | 56 kts | 60° |
| 2026-05-06 01:41 | 14.50189 | 121.00745 | 90 ft | 113 kts | 59° |
| 2026-05-06 01:42 | 14.50675 | 121.01616 | 91 ft | 163 kts | 60° |
| 2026-05-06 01:42 | 14.51276 | 121.02680 | 449 ft | 174 kts | 62° |
| 2026-05-06 01:42 | 14.51883 | 121.03752 | 1041 ft | 172 kts | 62° |
| 2026-05-06 01:42 | 14.52461 | 121.04829 | 1629 ft | 171 kts | 62° |
| 2026-05-06 01:43 | 14.53034 | 121.05894 | 2027 ft | 172 kts | 62° |
| 2026-05-06 01:43 | 14.53643 | 121.06995 | 2245 ft | 184 kts | 62° |
| 2026-05-06 01:43 | 14.54223 | 121.08035 | 2451 ft | 195 kts | 61° |
| 2026-05-06 01:43 | 14.54922 | 121.09293 | 2678 ft | 208 kts | 61° |
| 2026-05-06 01:44 | 14.55668 | 121.10634 | 2925 ft | 222 kts | 61° |
| 2026-05-06 01:44 | 14.56481 | 121.12048 | 3179 ft | 237 kts | 54° |
| 2026-05-06 01:44 | 14.57801 | 121.13167 | 3420 ft | 255 kts | 25° |
| 2026-05-06 01:44 | 14.59589 | 121.13522 | 3763 ft | 269 kts | 2° |
| 2026-05-06 01:45 | 14.61481 | 121.13505 | 4344 ft | 272 kts | 1° |
| 2026-05-06 01:45 | 14.63393 | 121.13493 | 4946 ft | 273 kts | 2° |
| 2026-05-06 01:45 | 14.65312 | 121.13493 | 5538 ft | 275 kts | 2° |
| 2026-05-06 01:45 | 14.67253 | 121.13502 | 6112 ft | 278 kts | 2° |
| 2026-05-06 01:46 | 14.69185 | 121.13474 | 6681 ft | 281 kts | 357° |
| 2026-05-06 01:46 | 14.71143 | 121.13142 | 7220 ft | 285 kts | 347° |
| 2026-05-06 01:46 | 14.73033 | 121.12530 | 7781 ft | 288 kts | 342° |
| 2026-05-06 01:46 | 14.74957 | 121.11831 | 8332 ft | 291 kts | 342° |
| 2026-05-06 01:47 | 14.76875 | 121.11126 | 8859 ft | 293 kts | 342° |
| 2026-05-06 01:47 | 14.78787 | 121.10426 | 9368 ft | 295 kts | 342° |
| 2026-05-06 01:47 | 14.80755 | 121.09712 | 9897 ft | 298 kts | 342° |
| 2026-05-06 01:47 | 14.82709 | 121.09009 | 10302 ft | 304 kts | 342° |
| 2026-05-06 01:48 | 14.84784 | 121.08263 | 10551 ft | 318 kts | 342° |
| 2026-05-06 01:48 | 14.86926 | 121.07495 | 10777 ft | 331 kts | 342° |
| 2026-05-06 01:48 | 14.89129 | 121.06628 | 10981 ft | 344 kts | 338° |
| 2026-05-06 01:48 | 14.91374 | 121.05550 | 11189 ft | 358 kts | 334° |
| 2026-05-06 01:49 | 14.93647 | 121.04295 | 11442 ft | 369 kts | 332° |
| 2026-05-06 01:49 | 14.95934 | 121.03002 | 11899 ft | 373 kts | 332° |
| 2026-05-06 01:49 | 14.98231 | 121.01699 | 12410 ft | 375 kts | 332° |
| 2026-05-06 01:49 | 15.00511 | 121.00407 | 12895 ft | 378 kts | 332° |
| 2026-05-06 01:50 | 15.02845 | 120.99085 | 13377 ft | 380 kts | 332° |
| 2026-05-06 01:50 | 15.04959 | 120.97890 | 13804 ft | 383 kts | 332° |
| 2026-05-06 01:50 | 15.07315 | 120.96557 | 14278 ft | 385 kts | 332° |
| 2026-05-06 01:50 | 15.09677 | 120.95222 | 14728 ft | 388 kts | 332° |
| 2026-05-06 01:51 | 15.12071 | 120.93869 | 15179 ft | 391 kts | 332° |
| 2026-05-06 01:51 | 15.14472 | 120.92511 | 15621 ft | 394 kts | 332° |
| 2026-05-06 01:51 | 15.16864 | 120.91158 | 16033 ft | 397 kts | 332° |
| 2026-05-06 01:51 | 15.19301 | 120.89780 | 16462 ft | 399 kts | 332° |
| 2026-05-06 01:52 | 15.21753 | 120.88392 | 16900 ft | 402 kts | 332° |
| 2026-05-06 01:52 | 15.24230 | 120.86989 | 17321 ft | 404 kts | 332° |
| 2026-05-06 01:52 | 15.26702 | 120.85590 | 17752 ft | 407 kts | 332° |
| 2026-05-06 01:52 | 15.29194 | 120.84178 | 18193 ft | 409 kts | 332° |
| 2026-05-06 01:53 | 15.31712 | 120.82751 | 18607 ft | 412 kts | 331° |
| 2026-05-06 01:53 | 15.34235 | 120.81320 | 19009 ft | 414 kts | 331° |
| 2026-05-06 01:53 | 15.36765 | 120.79884 | 19425 ft | 417 kts | 331° |
| 2026-05-06 01:53 | 15.39314 | 120.78439 | 19825 ft | 419 kts | 331° |
| 2026-05-06 01:54 | 15.41858 | 120.76994 | 20211 ft | 421 kts | 331° |
| 2026-05-06 01:54 | 15.44468 | 120.75513 | 20599 ft | 424 kts | 331° |
| 2026-05-06 01:54 | 15.47105 | 120.74120 | 20973 ft | 426 kts | 335° |
| 2026-05-06 01:54 | 15.49857 | 120.72920 | 21348 ft | 429 kts | 339° |
| 2026-05-06 01:55 | 15.52684 | 120.71935 | 21724 ft | 431 kts | 343° |
| 2026-05-06 01:55 | 15.55565 | 120.71065 | 22082 ft | 433 kts | 343° |
| 2026-05-06 01:55 | 15.58487 | 120.70206 | 22434 ft | 435 kts | 343° |
| 2026-05-06 01:55 | 15.61384 | 120.69353 | 22794 ft | 437 kts | 343° |
| 2026-05-06 01:56 | 15.64322 | 120.68485 | 23163 ft | 439 kts | 343° |
| 2026-05-06 01:56 | 15.67290 | 120.67606 | 23532 ft | 440 kts | 343° |
| 2026-05-06 01:56 | 15.70225 | 120.66733 | 23878 ft | 442 kts | 343° |
| 2026-05-06 01:56 | 15.73213 | 120.65842 | 24206 ft | 444 kts | 343° |
| 2026-05-06 01:57 | 15.76205 | 120.64948 | 24525 ft | 446 kts | 343° |
| 2026-05-06 01:57 | 15.79181 | 120.64059 | 24836 ft | 449 kts | 343° |
| 2026-05-06 01:57 | 15.82185 | 120.63159 | 25155 ft | 451 kts | 343° |
| 2026-05-06 01:57 | 15.85232 | 120.62247 | 25483 ft | 452 kts | 343° |
| 2026-05-06 01:58 | 15.88255 | 120.61340 | 25802 ft | 454 kts | 342° |
| 2026-05-06 01:58 | 15.91316 | 120.60422 | 26117 ft | 456 kts | 342° |
| 2026-05-06 01:58 | 15.94340 | 120.59515 | 26423 ft | 457 kts | 342° |
| 2026-05-06 01:58 | 15.97403 | 120.58594 | 26724 ft | 459 kts | 342° |
| 2026-05-06 01:59 | 16.00499 | 120.57664 | 27021 ft | 460 kts | 342° |
| 2026-05-06 01:59 | 16.03569 | 120.56741 | 27315 ft | 462 kts | 342° |
| 2026-05-06 01:59 | 16.06698 | 120.55801 | 27609 ft | 464 kts | 342° |
| 2026-05-06 01:59 | 16.09797 | 120.54869 | 27902 ft | 465 kts | 342° |
| 2026-05-06 02:00 | 16.12907 | 120.53934 | 28187 ft | 467 kts | 342° |
| 2026-05-06 02:00 | 16.16062 | 120.52984 | 28469 ft | 468 kts | 342° |
| 2026-05-06 02:00 | 16.19187 | 120.52043 | 28735 ft | 470 kts | 342° |
| 2026-05-06 02:00 | 16.22310 | 120.51102 | 28995 ft | 472 kts | 342° |
| 2026-05-06 02:01 | 16.25485 | 120.50146 | 29256 ft | 473 kts | 342° |
| 2026-05-06 02:01 | 16.28659 | 120.49189 | 29518 ft | 475 kts | 342° |
| 2026-05-06 02:01 | 16.31875 | 120.48219 | 29782 ft | 476 kts | 342° |
| 2026-05-06 02:01 | 16.35031 | 120.47267 | 30033 ft | 478 kts | 342° |
| 2026-05-06 02:02 | 16.38234 | 120.46300 | 30280 ft | 480 kts | 342° |
| 2026-05-06 02:02 | 16.41455 | 120.45328 | 30526 ft | 481 kts | 342° |
| 2026-05-06 02:02 | 16.44689 | 120.44350 | 30775 ft | 483 kts | 342° |
| 2026-05-06 02:02 | 16.47919 | 120.43375 | 31084 ft | 483 kts | 342° |
| 2026-05-06 02:03 | 16.51162 | 120.42394 | 31458 ft | 481 kts | 342° |
| 2026-05-06 02:03 | 16.54362 | 120.41425 | 31833 ft | 479 kts | 342° |
| 2026-05-06 02:03 | 16.57584 | 120.40449 | 32186 ft | 478 kts | 342° |
| 2026-05-06 02:03 | 16.60777 | 120.39483 | 32511 ft | 477 kts | 342° |
| 2026-05-06 02:04 | 16.63950 | 120.38552 | 32824 ft | 477 kts | 344° |
| 2026-05-06 02:04 | 16.67223 | 120.37785 | 33158 ft | 478 kts | 347° |
| 2026-05-06 02:04 | 16.70520 | 120.37226 | 33498 ft | 478 kts | 351° |
| 2026-05-06 02:04 | 16.73816 | 120.36880 | 33859 ft | 477 kts | 354° |
| 2026-05-06 02:05 | 16.77135 | 120.36740 | 34224 ft | 476 kts | 358° |
| 2026-05-06 02:05 | 16.80439 | 120.36809 | 34580 ft | 475 kts | 1° |
| 2026-05-06 02:05 | 16.83771 | 120.37086 | 34913 ft | 475 kts | 4° |
| 2026-05-06 02:05 | 16.87019 | 120.37454 | 35221 ft | 474 kts | 4° |
| 2026-05-06 02:06 | 16.90334 | 120.37849 | 35509 ft | 473 kts | 4° |
| 2026-05-06 02:06 | 16.93589 | 120.38238 | 35772 ft | 472 kts | 4° |
| 2026-05-06 02:06 | 16.96856 | 120.38627 | 36020 ft | 472 kts | 4° |
| 2026-05-06 02:06 | 17.00122 | 120.39012 | 36260 ft | 471 kts | 4° |
| 2026-05-06 02:07 | 17.03411 | 120.39400 | 36504 ft | 471 kts | 4° |
| 2026-05-06 02:07 | 17.06660 | 120.39781 | 36743 ft | 470 kts | 4° |
| 2026-05-06 02:07 | 17.09924 | 120.40163 | 36972 ft | 469 kts | 4° |
| 2026-05-06 02:07 | 17.13184 | 120.40546 | 37196 ft | 469 kts | 4° |
| 2026-05-06 02:08 | 17.16400 | 120.40922 | 37405 ft | 468 kts | 4° |
| 2026-05-06 02:08 | 17.19640 | 120.41301 | 37601 ft | 468 kts | 4° |
| 2026-05-06 02:08 | 17.22893 | 120.41683 | 37788 ft | 467 kts | 4° |
| 2026-05-06 02:08 | 17.26130 | 120.42064 | 37960 ft | 467 kts | 4° |
| 2026-05-06 02:09 | 17.29353 | 120.42444 | 38126 ft | 467 kts | 4° |
| 2026-05-06 02:09 | 17.32581 | 120.42827 | 38293 ft | 467 kts | 4° |
| 2026-05-06 02:09 | 17.35855 | 120.43215 | 38456 ft | 466 kts | 4° |
| 2026-05-06 02:09 | 17.39085 | 120.43598 | 38634 ft | 466 kts | 4° |
| 2026-05-06 02:10 | 17.42311 | 120.43980 | 38823 ft | 465 kts | 4° |
| 2026-05-06 02:10 | 17.45506 | 120.44357 | 38932 ft | 465 kts | 4° |
| 2026-05-06 02:10 | 17.51982 | 120.45122 | 38940 ft | 466 kts | 4° |
| 2026-05-06 02:11 | 17.58391 | 120.45879 | 38945 ft | 466 kts | 4° |
| 2026-05-06 02:11 | 17.64881 | 120.46647 | 38938 ft | 466 kts | 4° |
| 2026-05-06 02:12 | 17.71324 | 120.47412 | 38939 ft | 466 kts | 4° |
| 2026-05-06 02:12 | 17.77808 | 120.48182 | 38933 ft | 466 kts | 4° |
| 2026-05-06 02:13 | 17.83996 | 120.48916 | 38927 ft | 466 kts | 4° |
| 2026-05-06 02:13 | 17.90454 | 120.49681 | 38925 ft | 466 kts | 4° |
| 2026-05-06 02:14 | 17.96896 | 120.50445 | 38918 ft | 466 kts | 4° |
| 2026-05-06 02:14 | 18.03375 | 120.51213 | 38921 ft | 466 kts | 4° |
| 2026-05-06 02:15 | 18.09716 | 120.51960 | 38926 ft | 466 kts | 3° |
| 2026-05-06 02:15 | 18.16173 | 120.52719 | 38930 ft | 466 kts | 4° |
| 2026-05-06 02:16 | 18.22652 | 120.53320 | 38931 ft | 465 kts | 1° |
| 2026-05-06 02:16 | 18.29128 | 120.53833 | 38933 ft | 465 kts | 1° |
| 2026-05-06 02:17 | 18.35600 | 120.54346 | 38929 ft | 464 kts | 1° |
| 2026-05-06 02:17 | 18.42042 | 120.54861 | 38927 ft | 464 kts | 1° |
| 2026-05-06 02:18 | 18.48503 | 120.55377 | 38929 ft | 465 kts | 1° |
| 2026-05-06 02:18 | 18.49547 | 120.55460 | 38929 ft | 465 kts | 1° |